createdAt,value
2023-01-17T00:00:18.566Z,0.20
2023-01-17T00:03:28.772Z,0.10
2023-01-17T00:06:58.202Z,0.00
2023-01-17T00:10:10.787Z,0.10
2023-01-17T00:13:18.993Z,0.20
2023-01-17T00:16:27.341Z,0.00
2023-01-17T00:19:53.324Z,0.10
2023-01-17T00:23:24.592Z,0.10
2023-01-17T00:26:33.221Z,0.10
2023-01-17T00:29:40.570Z,0.20
2023-01-17T00:32:47.795Z,0.10
2023-01-17T00:35:57.691Z,0.00
2023-01-17T00:39:06.145Z,0.00
2023-01-17T00:42:13.462Z,0.17
2023-01-17T00:45:39.397Z,0.07
2023-01-17T00:49:05.349Z,0.00
2023-01-17T00:52:31.256Z,0.00
2023-01-17T00:55:58.359Z,0.10
2023-01-17T00:59:24.267Z,0.00
2023-01-17T01:02:50.793Z,0.10
2023-01-17T01:06:17.040Z,0.10
2023-01-17T01:09:42.561Z,0.10
2023-01-17T01:13:09.924Z,0.10
2023-01-17T01:16:36.976Z,0.00
2023-01-17T01:20:02.682Z,0.10
2023-01-17T01:23:28.465Z,0.00
2023-01-17T01:26:54.370Z,0.07
2023-01-17T01:30:22.574Z,0.07
2023-01-17T01:33:29.634Z,0.20
2023-01-17T01:36:37.717Z,0.10
2023-01-17T01:39:45.907Z,0.20
2023-01-17T01:42:58.059Z,0.30
2023-01-17T01:46:11.071Z,0.03
2023-01-17T01:49:24.797Z,0.00
2023-01-17T01:52:37.944Z,0.10
2023-01-17T01:55:51.687Z,0.10
2023-01-17T01:59:03.942Z,0.10
2023-01-17T02:02:18.429Z,0.17
2023-01-17T02:05:29.219Z,0.10
2023-01-17T02:08:37.726Z,0.10
2023-01-17T02:11:48.022Z,0.10
2023-01-17T02:14:56.304Z,0.10
2023-01-17T02:18:21.660Z,0.10
2023-01-17T02:27:04.606Z,0.10
2023-01-17T02:30:35.074Z,0.00
2023-01-17T02:33:55.372Z,0.13
2023-01-17T02:37:13.963Z,0.00
2023-01-17T02:40:31.392Z,0.13
2023-01-17T02:43:41.494Z,0.23
2023-01-17T02:46:55.205Z,0.10
2023-01-17T02:50:10.039Z,0.10
2023-01-17T02:53:37.329Z,0.07
2023-01-17T02:57:02.370Z,0.00
2023-01-17T03:00:23.759Z,0.10
2023-01-17T03:03:44.583Z,0.00
2023-01-17T03:06:59.691Z,0.10
2023-01-17T03:10:11.013Z,0.00
2023-01-17T03:13:19.388Z,0.10
2023-01-17T03:16:32.539Z,0.03
2023-01-17T03:19:42.116Z,0.10
2023-01-17T03:22:50.620Z,0.00
2023-01-17T03:25:58.997Z,0.00
2023-01-17T03:29:07.157Z,0.10
2023-01-17T03:32:15.329Z,0.07
2023-01-17T03:35:24.991Z,0.10
2023-01-17T03:38:33.203Z,0.10
2023-01-17T03:41:41.369Z,0.00
2023-01-17T03:44:49.532Z,0.00
2023-01-17T03:48:00.407Z,0.10
2023-01-17T03:51:09.945Z,0.10
2023-01-17T03:54:18.082Z,0.10
2023-01-17T03:57:26.247Z,0.00
2023-01-17T04:00:34.355Z,0.07
2023-01-17T04:03:42.461Z,0.03
2023-01-17T04:06:51.869Z,0.10
2023-01-17T04:09:59.987Z,0.10
2023-01-17T04:13:08.517Z,0.03
2023-01-17T04:16:19.717Z,0.10
2023-01-17T04:19:28.095Z,0.10
2023-01-17T04:22:37.497Z,0.13
2023-01-17T04:25:46.196Z,0.10
2023-01-17T04:28:54.281Z,0.10
2023-01-17T04:32:02.401Z,0.10
2023-01-17T04:35:11.249Z,0.20
2023-01-17T04:38:20.835Z,0.10
2023-01-17T04:41:29.139Z,0.20
2023-01-17T04:44:37.179Z,0.20
2023-01-17T04:47:45.375Z,0.20
2023-01-17T04:50:53.477Z,0.10
2023-01-17T04:54:02.921Z,0.10
2023-01-17T04:57:11.341Z,0.10
2023-01-17T05:00:23.310Z,0.10
2023-01-17T05:03:32.628Z,0.00
2023-01-17T05:06:40.750Z,0.03
2023-01-17T05:09:50.114Z,0.00
2023-01-17T05:13:00.516Z,0.10
2023-01-17T05:16:09.313Z,0.17
2023-01-17T05:19:19.226Z,0.10
2023-01-17T05:22:28.474Z,0.10
2023-01-17T05:25:44.426Z,0.20
2023-01-17T05:28:53.234Z,0.20
2023-01-17T05:32:01.607Z,0.20
2023-01-17T05:35:11.102Z,0.27
2023-01-17T05:38:19.831Z,0.20
2023-01-17T05:41:29.353Z,0.10
2023-01-17T05:44:38.429Z,0.20
2023-01-17T05:47:48.516Z,0.40
2023-01-17T05:50:56.553Z,0.43
2023-01-17T05:54:05.701Z,0.20
2023-01-17T05:57:15.916Z,0.60
2023-01-17T06:00:25.722Z,0.30
2023-01-17T06:03:34.247Z,0.23
2023-01-17T06:06:42.458Z,0.10
2023-01-17T06:09:50.951Z,0.20
2023-01-17T06:13:06.787Z,0.10
2023-01-17T06:16:15.368Z,0.10
2023-01-17T06:19:23.693Z,0.30
2023-01-17T06:22:32.274Z,0.20
2023-01-17T06:25:43.576Z,0.37
2023-01-17T06:28:54.192Z,0.60
2023-01-17T06:32:03.024Z,0.40
2023-01-17T06:35:11.240Z,0.47
2023-01-17T06:38:20.455Z,0.63
2023-01-17T06:41:28.566Z,1.90
2023-01-17T06:44:38.279Z,4.87
2023-01-17T06:47:47.087Z,4.00
2023-01-17T06:50:55.238Z,2.20
2023-01-17T06:54:06.099Z,1.37
2023-01-17T06:57:14.191Z,1.80
2023-01-17T07:00:24.424Z,0.97
2023-01-17T07:03:32.704Z,0.50
2023-01-17T07:06:40.758Z,0.70
2023-01-17T07:09:48.843Z,0.97
2023-01-17T07:13:00.883Z,0.20
2023-01-17T07:16:10.581Z,0.40
2023-01-17T07:19:18.749Z,0.30
2023-01-17T07:22:26.905Z,4.70
2023-01-17T07:25:35.067Z,3.80
2023-01-17T07:28:43.195Z,1.50
2023-01-17T07:31:52.613Z,0.87
2023-01-17T07:35:00.745Z,0.50
2023-01-17T07:38:11.685Z,0.40
2023-01-17T07:41:19.782Z,0.53
2023-01-17T07:44:28.125Z,0.80
2023-01-17T07:47:37.749Z,0.90
2023-01-17T07:50:46.137Z,0.30
2023-01-17T07:53:54.285Z,0.30
2023-01-17T07:57:02.950Z,0.50
2023-01-17T08:00:12.789Z,0.83
2023-01-17T08:03:22.432Z,0.70
2023-01-17T08:06:30.971Z,0.40
2023-01-17T08:09:39.023Z,0.50
2023-01-17T08:12:47.797Z,0.30
2023-01-17T08:15:55.878Z,0.50
2023-01-17T08:19:05.389Z,0.40
2023-01-17T08:22:13.645Z,0.20
2023-01-17T08:25:22.300Z,0.40
2023-01-17T08:28:30.429Z,0.20
2023-01-17T08:31:38.601Z,0.50
2023-01-17T08:34:48.173Z,0.50
2023-01-17T08:37:57.631Z,0.30
2023-01-17T08:41:06.435Z,0.50
2023-01-17T08:44:15.855Z,1.20
2023-01-17T08:47:24.262Z,1.63
2023-01-17T08:50:33.707Z,3.67
2023-01-17T08:53:42.437Z,2.50
2023-01-17T08:56:52.758Z,0.90
2023-01-17T09:00:00.914Z,0.60
2023-01-17T09:03:14.411Z,0.50
2023-01-17T09:06:24.002Z,0.60
2023-01-17T09:09:32.081Z,0.40
2023-01-17T09:12:40.389Z,0.30
2023-01-17T09:15:48.550Z,0.43
2023-01-17T09:18:58.270Z,0.67
2023-01-17T09:22:07.950Z,0.63
2023-01-17T09:25:17.209Z,0.30
2023-01-17T09:28:26.539Z,0.50
2023-01-17T09:31:35.805Z,0.27
2023-01-17T09:34:44.276Z,0.30
2023-01-17T09:37:55.825Z,0.40
2023-01-17T09:41:22.003Z,0.30
2023-01-17T09:44:39.991Z,0.37
2023-01-17T09:47:53.394Z,0.20
2023-01-17T09:51:09.011Z,0.20
2023-01-17T09:54:24.304Z,0.30
2023-01-17T09:57:45.610Z,0.30
2023-01-17T10:01:10.035Z,0.20
2023-01-17T10:04:48.983Z,0.20
2023-01-17T10:08:18.490Z,0.20
2023-01-17T10:11:54.460Z,0.20
2023-01-17T10:15:32.507Z,0.10
2023-01-17T10:19:23.595Z,0.20
2023-01-17T10:22:51.777Z,0.10
2023-01-17T10:26:03.521Z,0.10
2023-01-17T10:29:20.252Z,0.10
2023-01-17T10:32:34.420Z,0.10
2023-01-17T10:35:55.395Z,0.17
2023-01-17T10:39:20.375Z,0.13
2023-01-17T10:42:44.012Z,0.17
2023-01-17T10:45:57.696Z,0.33
2023-01-17T10:49:05.967Z,0.20
2023-01-17T10:52:27.276Z,0.20
2023-01-17T10:55:45.631Z,0.30
2023-01-17T10:59:17.108Z,0.00
2023-01-17T11:02:31.997Z,0.20
2023-01-17T11:05:42.802Z,0.47
2023-01-17T11:08:54.761Z,0.33
2023-01-17T11:12:03.150Z,0.50
2023-01-17T11:15:25.970Z,0.70
2023-01-17T11:18:40.416Z,0.67
2023-01-17T11:21:57.592Z,0.37
2023-01-17T11:25:08.087Z,0.43
2023-01-17T11:28:26.216Z,0.50
2023-01-17T11:31:34.353Z,0.53
2023-01-17T11:34:43.889Z,0.40
2023-01-17T11:38:04.397Z,0.50
2023-01-17T11:41:22.175Z,0.50
2023-01-17T11:44:33.417Z,0.73
2023-01-17T11:47:41.721Z,0.70
2023-01-17T11:50:59.088Z,0.50
2023-01-17T11:54:24.828Z,0.40
2023-01-17T11:57:36.492Z,0.40
2023-01-17T12:00:53.213Z,0.30
2023-01-17T12:04:25.398Z,0.43
2023-01-17T12:07:48.361Z,0.53
2023-01-17T12:11:08.755Z,0.30
2023-01-17T12:14:31.168Z,0.30
2023-01-17T12:18:14.159Z,0.33
2023-01-17T12:21:41.687Z,0.30
2023-01-17T12:25:18.791Z,0.50
2023-01-17T12:29:03.382Z,0.70
2023-01-17T12:32:55.339Z,0.70
2023-01-17T12:36:17.588Z,0.50
2023-01-17T12:39:38.164Z,0.60
2023-01-17T12:42:57.801Z,0.30
2023-01-17T12:46:16.982Z,0.33
2023-01-17T12:49:38.682Z,0.43
2023-01-17T12:52:58.581Z,0.60
2023-01-17T12:56:16.243Z,0.40
2023-01-17T12:59:37.918Z,0.47
2023-01-17T13:02:55.016Z,0.37
2023-01-17T13:06:07.076Z,0.27
2023-01-17T13:09:22.757Z,0.30
2023-01-17T13:12:38.762Z,0.30
2023-01-17T13:15:52.374Z,0.30
2023-01-17T13:19:34.790Z,0.50
2023-01-17T13:26:33.746Z,0.30
2023-01-17T13:29:58.173Z,0.30
2023-01-17T13:33:33.928Z,0.50
2023-01-17T13:37:05.501Z,0.43
2023-01-17T13:40:51.885Z,0.40
2023-01-17T13:44:28.951Z,0.30
2023-01-17T13:47:41.958Z,0.70
2023-01-17T13:50:54.028Z,0.70
2023-01-17T13:54:04.569Z,0.33
2023-01-17T13:57:41.881Z,0.27
2023-01-17T14:00:54.858Z,0.23
2023-01-17T14:04:07.279Z,0.63
2023-01-17T14:07:27.379Z,0.47
2023-01-17T14:10:41.408Z,0.40
2023-01-17T14:13:51.679Z,0.43
2023-01-17T14:17:51.701Z,0.30
2023-01-17T14:21:14.341Z,0.50
2023-01-17T14:24:26.141Z,0.40
2023-01-17T14:27:38.593Z,0.20
2023-01-17T14:30:54.184Z,0.30
2023-01-17T14:34:14.055Z,0.50
2023-01-17T14:37:39.359Z,0.30
2023-01-17T14:40:56.741Z,0.43
2023-01-17T14:44:05.371Z,0.23
2023-01-17T14:47:15.892Z,0.30
2023-01-17T14:50:29.243Z,0.40
2023-01-17T14:53:37.635Z,0.40
2023-01-17T14:56:49.357Z,0.50
2023-01-17T15:00:19.890Z,0.30
2023-01-17T15:03:29.700Z,0.47
2023-01-17T15:06:41.673Z,0.70
2023-01-17T15:09:49.897Z,1.00
2023-01-17T15:13:10.346Z,0.73
2023-01-17T15:16:24.173Z,0.80
2023-01-17T15:19:43.458Z,1.00
2023-01-17T15:22:51.748Z,0.70
2023-01-17T15:26:07.327Z,0.80
2023-01-17T15:29:25.784Z,0.60
2023-01-17T15:32:34.462Z,0.50
2023-01-17T15:35:42.801Z,0.30
2023-01-17T15:38:59.636Z,0.40
2023-01-17T15:42:21.641Z,0.57
2023-01-17T15:45:34.057Z,0.30
2023-01-17T15:48:44.952Z,0.60
2023-01-17T15:51:56.059Z,0.37
2023-01-17T15:55:15.495Z,0.30
2023-01-17T15:58:27.174Z,0.30
2023-01-17T16:01:36.863Z,0.50
2023-01-17T16:04:45.390Z,0.60
2023-01-17T16:07:56.413Z,1.00
2023-01-17T16:11:06.602Z,0.67
2023-01-17T16:14:14.790Z,0.40
2023-01-17T16:17:24.521Z,0.60
2023-01-17T16:20:38.486Z,0.40
2023-01-17T16:23:46.826Z,0.60
2023-01-17T16:26:55.169Z,0.80
2023-01-17T16:30:03.501Z,0.90
2023-01-17T16:33:13.984Z,0.90
2023-01-17T16:36:23.059Z,1.40
2023-01-17T16:39:34.364Z,1.30
2023-01-17T16:42:42.772Z,1.53
2023-01-17T16:45:54.048Z,1.47
2023-01-17T16:49:05.153Z,1.70
2023-01-17T16:52:13.791Z,1.50
2023-01-17T16:55:25.056Z,1.30
2023-01-17T16:58:33.348Z,1.10
2023-01-17T17:01:41.589Z,1.90
2023-01-17T17:04:52.741Z,1.00
2023-01-17T17:08:02.200Z,1.10
2023-01-17T17:11:14.889Z,0.90
2023-01-17T17:14:23.079Z,0.97
2023-01-17T17:17:31.377Z,0.60
2023-01-17T17:20:40.976Z,0.67
2023-01-17T17:23:52.888Z,0.60
2023-01-17T17:27:02.573Z,0.60
2023-01-17T17:30:13.787Z,0.60
2023-01-17T17:33:21.838Z,0.60
2023-01-17T17:36:32.302Z,1.47
2023-01-17T17:39:42.209Z,2.60
2023-01-17T17:42:50.304Z,1.60
2023-01-17T17:45:58.332Z,14.00
2023-01-17T17:49:06.883Z,15.13
2023-01-17T17:52:16.632Z,19.17
2023-01-17T17:55:25.230Z,19.70
2023-01-17T17:58:36.004Z,9.10
2023-01-17T18:01:44.124Z,7.60
2023-01-17T18:04:52.409Z,7.47
2023-01-17T18:08:01.984Z,7.10
2023-01-17T18:11:15.054Z,5.53
2023-01-17T18:14:24.361Z,4.20
2023-01-17T18:17:32.422Z,4.60
2023-01-17T18:20:40.680Z,2.30
2023-01-17T18:23:52.663Z,2.23
2023-01-17T18:27:01.680Z,5.20
2023-01-17T18:30:12.550Z,3.93
2023-01-17T18:33:22.015Z,4.60
2023-01-17T18:36:30.694Z,3.00
2023-01-17T18:39:40.692Z,2.80
2023-01-17T18:42:50.229Z,2.20
2023-01-17T18:45:58.792Z,2.80
2023-01-17T18:49:07.660Z,3.03
2023-01-17T18:52:17.585Z,4.40
2023-01-17T18:55:27.675Z,4.23
2023-01-17T18:58:40.955Z,4.97
2023-01-17T19:01:49.416Z,3.30
2023-01-17T19:04:58.069Z,3.03
2023-01-17T19:08:06.247Z,2.37
2023-01-17T19:11:16.558Z,4.47
2023-01-17T19:14:25.414Z,5.00
2023-01-17T19:17:33.666Z,4.00
2023-01-17T19:20:41.956Z,3.93
2023-01-17T19:23:51.871Z,5.07
2023-01-17T19:27:02.760Z,5.90
2023-01-17T19:30:13.180Z,4.00
2023-01-17T19:33:21.404Z,4.67
2023-01-17T19:36:34.488Z,4.30
2023-01-17T19:39:42.720Z,3.33
2023-01-17T19:42:52.312Z,3.27
2023-01-17T19:46:01.379Z,2.93
2023-01-17T19:49:10.541Z,2.70
2023-01-17T19:52:21.935Z,2.43
2023-01-17T19:55:30.373Z,2.67
2023-01-17T19:58:40.274Z,2.10
2023-01-17T20:01:49.356Z,1.83
2023-01-17T20:04:57.759Z,2.23
2023-01-17T20:08:09.898Z,2.13
2023-01-17T20:11:21.870Z,2.90
2023-01-17T20:14:31.503Z,1.97
2023-01-17T20:17:39.797Z,2.27
2023-01-17T20:20:57.025Z,3.27
2023-01-17T20:24:08.880Z,3.17
2023-01-17T20:27:18.999Z,3.90
2023-01-17T20:30:31.851Z,3.57
2023-01-17T20:33:40.948Z,3.77
2023-01-17T20:36:49.378Z,3.93
2023-01-17T20:39:58.046Z,2.73
2023-01-17T20:43:06.533Z,2.47
2023-01-17T20:46:18.998Z,2.33
2023-01-17T20:49:27.322Z,2.43
2023-01-17T20:52:35.835Z,1.67
2023-01-17T20:55:44.759Z,1.33
2023-01-17T20:58:54.423Z,1.50
2023-01-17T21:02:05.896Z,1.80
2023-01-17T21:05:16.553Z,1.57
2023-01-17T21:08:26.543Z,1.60
2023-01-17T21:11:37.097Z,1.67
2023-01-17T21:14:45.959Z,1.67
2023-01-17T21:17:56.316Z,1.60
2023-01-17T21:21:07.581Z,1.50
2023-01-17T21:24:20.627Z,1.20
2023-01-17T21:27:28.802Z,1.87
2023-01-17T21:30:37.702Z,1.80
2023-01-17T21:33:48.141Z,1.63
2023-01-17T21:36:56.436Z,1.30
2023-01-17T21:40:05.503Z,1.10
2023-01-17T21:43:14.645Z,1.20
2023-01-17T21:46:22.999Z,1.00
2023-01-17T21:49:32.732Z,1.20
2023-01-17T21:52:41.719Z,1.23
2023-01-17T21:56:08.120Z,1.27
2023-01-17T21:59:16.298Z,1.30
2023-01-17T22:02:25.032Z,1.40
2023-01-17T22:05:35.194Z,1.23
2023-01-17T22:08:43.945Z,1.03
2023-01-17T22:11:52.096Z,1.23
2023-01-17T22:15:00.385Z,1.40
2023-01-17T22:18:09.838Z,1.30
2023-01-17T22:21:22.204Z,1.10
2023-01-17T22:24:30.540Z,0.97
2023-01-17T22:27:39.021Z,1.40
2023-01-17T22:30:47.179Z,1.00
2023-01-17T22:33:58.572Z,1.20
2023-01-17T22:37:10.035Z,1.10
2023-01-17T22:40:19.065Z,1.30
2023-01-17T22:43:28.749Z,1.33
2023-01-17T22:46:39.262Z,1.30
2023-01-17T22:49:47.663Z,2.10
2023-01-17T22:52:57.733Z,1.23
2023-01-17T22:56:08.772Z,1.30
2023-01-17T22:59:17.619Z,1.40
2023-01-17T23:02:25.924Z,0.83
2023-01-17T23:05:34.265Z,1.20
2023-01-17T23:08:46.242Z,0.90
2023-01-17T23:11:56.280Z,0.90
2023-01-17T23:15:22.442Z,0.90
2023-01-17T23:18:48.007Z,1.20
2023-01-17T23:22:17.540Z,0.97
2023-01-17T23:25:27.421Z,1.03
2023-01-17T23:28:34.742Z,0.90
2023-01-17T23:31:42.785Z,0.90
2023-01-17T23:34:52.136Z,1.03
2023-01-17T23:38:17.984Z,1.10
2023-01-17T23:41:53.630Z,0.80
2023-01-17T23:45:01.707Z,0.90
2023-01-17T23:48:10.734Z,0.90
2023-01-17T23:51:19.153Z,0.90
2023-01-17T23:54:27.329Z,0.77
2023-01-17T23:57:37.479Z,0.80
